Terminal Aerodrome Forecast
Issued by NWS

Home | Current Version | Previous Version | Graphics & Text | Print | Product List | Glossary On
Versions: 1 2 3 4 5 6 7 8 9 10 11 12 13 14 15 16
000
FTUS43 KMPX 150500 CCA
TAFRWF
TAF COR
KRWF 150558Z 1506/1606 31008KT 5SM BR OVC003
     FM150700 33008KT 6SM BR SCT005 OVC012
      TEMPO 1507/1509 5SM BR OVC007
     FM151400 36012G18KT 2SM RA BR OVC006
      TEMPO 1518/1522 -FZRAPLSN
     FM152200 35022G32KT 3/4SM -SN BR OVC005
     FM160400 33022G32KT 4SM -SN BR OVC012=

USA.gov is the U.S. government's official web portal to all federal, state and local government web resources and services.